createdAt,value
2019-03-02T00:02:50.335Z,6.00
2019-03-02T00:05:52.030Z,5.90
2019-03-02T00:08:56.640Z,5.90
2019-03-02T00:11:57.786Z,5.90
2019-03-02T00:14:59.503Z,5.90
2019-03-02T00:18:01.141Z,5.90
2019-03-02T00:21:02.795Z,6.00
2019-03-02T00:24:04.669Z,6.00
2019-03-02T00:27:06.494Z,5.80
2019-03-02T00:30:08.146Z,5.90
2019-03-02T00:33:11.463Z,5.90
2019-03-02T00:36:16.024Z,5.90
2019-03-02T00:39:19.132Z,5.90
2019-03-02T00:42:20.700Z,5.90
2019-03-02T00:45:22.758Z,5.90
2019-03-02T00:48:24.611Z,5.90
2019-03-02T00:51:26.338Z,5.90
2019-03-02T00:54:33.234Z,5.80
2019-03-02T00:57:35.084Z,5.90
2019-03-02T01:00:36.662Z,5.90
2019-03-02T01:03:38.482Z,6.00
2019-03-02T01:06:40.435Z,6.00
2019-03-02T01:09:43.608Z,6.00
2019-03-02T01:12:46.065Z,5.90
2019-03-02T01:15:47.999Z,5.90
2019-03-02T01:18:49.651Z,5.90
2019-03-02T01:21:51.518Z,5.80
2019-03-02T01:24:53.317Z,5.90
2019-03-02T01:27:55.138Z,5.80
2019-03-02T01:30:57.232Z,5.90
2019-03-02T01:34:00.637Z,5.90
2019-03-02T01:37:04.891Z,5.90
2019-03-02T01:40:06.879Z,5.90
2019-03-02T01:43:09.018Z,5.90
2019-03-02T01:46:10.879Z,5.90
2019-03-02T01:49:12.556Z,5.90
2019-03-02T01:52:14.446Z,5.90
2019-03-02T01:55:16.274Z,5.70
2019-03-02T01:58:17.803Z,5.90
2019-03-02T02:01:20.866Z,5.90
2019-03-02T02:04:23.850Z,5.80
2019-03-02T02:07:25.600Z,5.90
2019-03-02T02:10:27.522Z,5.80
2019-03-02T02:13:29.352Z,5.80
2019-03-02T02:16:31.113Z,5.70
2019-03-02T02:19:34.712Z,5.80
2019-03-02T02:22:37.960Z,5.70
2019-03-02T02:25:39.563Z,5.60
2019-03-02T02:28:41.363Z,5.70
2019-03-02T02:31:45.015Z,5.70
2019-03-02T02:34:44.280Z,5.70
2019-03-02T02:37:45.635Z,5.70
2019-03-02T02:40:49.585Z,5.70
2019-03-02T02:43:54.158Z,5.50
2019-03-02T02:46:57.529Z,5.60
2019-03-02T02:49:59.465Z,5.50
2019-03-02T02:53:06.281Z,5.60
2019-03-02T02:56:05.305Z,5.60
2019-03-02T02:59:07.095Z,5.60
2019-03-02T03:02:10.809Z,5.60
2019-03-02T03:05:15.148Z,5.70
2019-03-02T03:08:16.395Z,5.70
2019-03-02T03:11:18.336Z,5.70
2019-03-02T03:14:21.565Z,5.60
2019-03-02T03:17:22.568Z,5.70
2019-03-02T03:20:24.071Z,5.60
2019-03-02T03:23:26.530Z,5.70
2019-03-02T03:26:31.054Z,5.60
2019-03-02T03:29:32.965Z,5.70
2019-03-02T03:32:35.091Z,5.70
2019-03-02T03:35:35.910Z,5.70
2019-03-02T03:38:37.537Z,5.70
2019-03-02T03:41:44.952Z,5.80
2019-03-02T03:44:47.102Z,5.70
2019-03-02T03:47:54.098Z,5.70
2019-03-02T03:50:55.656Z,5.70
2019-03-02T03:57:02.955Z,5.60
2019-03-02T04:00:04.732Z,5.60
2019-03-02T04:03:08.935Z,5.60
2019-03-02T04:06:13.358Z,5.70
2019-03-02T04:09:14.963Z,5.80
2019-03-02T04:12:19.847Z,5.70
2019-03-02T04:15:21.093Z,5.70
2019-03-02T04:18:22.951Z,5.70
2019-03-02T04:21:27.987Z,5.60
2019-03-02T04:24:27.960Z,5.60
2019-03-02T04:27:30.023Z,5.60
2019-03-02T04:30:32.877Z,5.70
2019-03-02T04:33:34.676Z,5.70
2019-03-02T04:36:36.656Z,5.70
2019-03-02T04:39:38.257Z,5.80
2019-03-02T04:42:40.347Z,5.70
2019-03-02T04:45:42.193Z,5.70
2019-03-02T04:48:43.127Z,5.70
2019-03-02T04:51:49.954Z,5.70
2019-03-02T04:54:51.892Z,5.70
2019-03-02T05:00:55.356Z,5.60
2019-03-02T05:03:58.084Z,5.70
2019-03-02T05:07:03.354Z,5.70
2019-03-02T05:10:10.305Z,5.70
2019-03-02T05:13:17.235Z,5.70
2019-03-02T05:16:18.048Z,5.60
2019-03-02T05:19:19.727Z,5.60
2019-03-02T05:22:20.970Z,5.70
2019-03-02T05:25:22.691Z,5.70
2019-03-02T05:28:24.420Z,5.70
2019-03-02T05:31:26.191Z,5.80
2019-03-02T05:34:27.648Z,5.80
2019-03-02T05:37:29.398Z,5.50
2019-03-02T05:40:31.630Z,5.60
2019-03-02T05:43:33.956Z,5.70
2019-03-02T05:46:35.868Z,5.70
2019-03-02T05:49:37.583Z,5.60
2019-03-02T05:52:39.199Z,5.70
2019-03-02T05:55:41.083Z,5.70
2019-03-02T05:58:42.899Z,5.70
2019-03-02T06:01:44.099Z,5.70
2019-03-02T06:04:45.958Z,5.80
2019-03-02T06:07:47.327Z,5.70
2019-03-02T06:10:49.096Z,5.70
2019-03-02T06:13:51.311Z,5.60
2019-03-02T06:16:57.327Z,5.80
2019-03-02T06:20:05.011Z,5.80
2019-03-02T06:26:06.367Z,5.70
2019-03-02T06:29:06.988Z,5.80
2019-03-02T06:32:08.835Z,5.70
2019-03-02T06:35:10.716Z,5.80
2019-03-02T06:38:12.732Z,5.80
2019-03-02T06:41:14.424Z,5.80
2019-03-02T06:44:16.019Z,5.80
2019-03-02T06:47:17.802Z,5.80
2019-03-02T06:50:19.481Z,5.80
2019-03-02T06:53:21.547Z,5.80
2019-03-02T06:56:23.299Z,5.80
2019-03-02T06:59:25.055Z,5.70
2019-03-02T07:02:26.751Z,5.80
2019-03-02T07:05:29.816Z,5.80
2019-03-02T07:08:32.816Z,5.90
2019-03-02T07:11:34.901Z,5.90
2019-03-02T07:14:36.804Z,5.90
2019-03-02T07:17:57.828Z,5.90
2019-03-02T07:21:06.559Z,5.80
2019-03-02T07:24:09.059Z,5.80
2019-03-02T07:27:10.896Z,5.80
2019-03-02T07:30:13.343Z,5.90
2019-03-02T07:33:21.083Z,5.90
2019-03-02T07:36:34.048Z,5.90
2019-03-02T07:39:36.755Z,5.90
2019-03-02T07:42:38.559Z,5.80
2019-03-02T07:45:45.545Z,5.90
2019-03-02T07:48:47.266Z,6.00
2019-03-02T07:51:49.378Z,6.00
2019-03-02T07:54:58.034Z,6.00
2019-03-02T07:57:55.146Z,6.00
2019-03-02T08:00:57.014Z,5.80
2019-03-02T08:03:59.659Z,5.80
2019-03-02T08:07:02.629Z,5.80
2019-03-02T08:10:04.406Z,5.90
2019-03-02T08:13:06.630Z,6.00
2019-03-02T08:16:06.480Z,6.00
2019-03-02T08:19:07.344Z,6.10
2019-03-02T08:22:11.076Z,6.00
2019-03-02T08:25:12.644Z,6.00
2019-03-02T08:28:14.298Z,6.00
2019-03-02T08:31:15.231Z,5.90
2019-03-02T08:34:17.724Z,6.00
2019-03-02T08:37:19.470Z,6.10
2019-03-02T08:40:23.464Z,6.20
2019-03-02T08:46:08.817Z,6.20
2019-03-02T08:49:10.462Z,6.20
2019-03-02T08:52:12.475Z,6.20
2019-03-02T08:55:14.425Z,6.30
2019-03-02T08:58:16.089Z,6.30
2019-03-02T09:01:18.717Z,6.40
2019-03-02T09:04:21.011Z,6.40
2019-03-02T09:07:22.636Z,6.50
2019-03-02T09:10:24.460Z,6.50
2019-03-02T09:13:26.252Z,6.60
2019-03-02T09:16:28.079Z,6.70
2019-03-02T09:19:29.871Z,6.70
2019-03-02T09:22:29.471Z,6.70
2019-03-02T09:25:31.644Z,6.70
2019-03-02T09:28:33.537Z,6.80
2019-03-02T09:31:35.041Z,6.70
2019-03-02T09:37:22.934Z,6.80
2019-03-02T09:40:25.247Z,6.90
2019-03-02T09:43:27.735Z,7.00
2019-03-02T09:46:29.503Z,7.20
2019-03-02T09:49:33.958Z,7.20
2019-03-02T09:52:35.284Z,7.30
2019-03-02T09:55:37.427Z,7.20
2019-03-02T09:58:39.112Z,7.40
2019-03-02T10:01:40.994Z,7.50
2019-03-02T10:07:27.083Z,7.80
2019-03-02T10:10:32.469Z,7.80
2019-03-02T10:13:32.800Z,7.80
2019-03-02T10:16:34.653Z,7.90
2019-03-02T10:19:36.494Z,8.00
2019-03-02T10:22:38.374Z,8.10
2019-03-02T10:25:40.427Z,8.20
2019-03-02T10:28:41.540Z,8.30
2019-03-02T10:31:43.930Z,8.50
2019-03-02T10:34:46.807Z,8.40
2019-03-02T10:37:48.648Z,8.30
2019-03-02T10:40:48.531Z,8.30
2019-03-02T10:43:49.418Z,8.30
2019-03-02T10:46:53.279Z,8.30
2019-03-02T10:49:54.539Z,8.30
2019-03-02T11:28:09.720Z,8.90
2019-03-02T11:34:30.370Z,9.10
2019-03-02T11:37:52.224Z,8.90
2019-03-02T11:44:31.619Z,9.20
2019-03-02T11:51:04.697Z,9.20
2019-03-02T11:54:28.850Z,9.20
2019-03-02T11:57:53.802Z,9.00
2019-03-02T12:01:03.708Z,9.10
2019-03-02T12:04:19.634Z,9.50
2019-03-02T12:07:41.942Z,9.50
2019-03-02T12:11:06.966Z,9.50
2019-03-02T12:14:26.391Z,9.40
2019-03-02T12:17:56.099Z,9.10
2019-03-02T12:21:21.043Z,9.30
2019-03-02T12:24:34.249Z,9.20
2019-03-02T12:27:49.475Z,9.20
2019-03-02T12:31:11.185Z,9.10
2019-03-02T12:34:23.934Z,9.20
2019-03-02T12:37:45.316Z,9.20
2019-03-02T12:41:12.226Z,9.20
2019-03-02T12:44:28.503Z,9.20
2019-03-02T12:50:39.261Z,9.20
2019-03-02T12:53:50.867Z,9.10
2019-03-02T12:57:14.743Z,9.20
2019-03-02T13:00:35.528Z,9.20
2019-03-02T13:04:09.244Z,9.00
2019-03-02T13:07:33.116Z,9.10
2019-03-02T13:20:44.502Z,9.10
2019-03-02T13:24:05.587Z,9.00
2019-03-02T13:27:21.651Z,9.00
2019-03-02T13:30:32.468Z,8.90
2019-03-02T13:33:59.360Z,9.00
2019-03-02T13:37:06.274Z,9.00
2019-03-02T13:40:33.538Z,9.00
2019-03-02T13:43:39.974Z,8.90
2019-03-02T13:46:58.711Z,9.00
2019-03-02T13:50:13.922Z,8.90
2019-03-02T13:53:21.554Z,9.00
2019-03-02T13:56:42.384Z,9.10
2019-03-02T14:03:23.715Z,9.10
2019-03-02T14:06:29.111Z,9.10
2019-03-02T14:09:42.095Z,9.00
2019-03-02T14:12:53.945Z,9.00
2019-03-02T14:19:33.677Z,9.00
2019-03-02T14:22:52.631Z,9.10
2019-03-02T14:26:00.159Z,9.20
2019-03-02T14:29:24.192Z,9.20
2019-03-02T14:32:48.340Z,9.20
2019-03-02T14:39:08.100Z,9.30
2019-03-02T14:45:30.030Z,9.20
2019-03-02T14:48:51.656Z,9.30
2019-03-02T14:52:13.584Z,9.30
2019-03-02T14:55:25.107Z,9.30
2019-03-02T14:58:52.090Z,9.20
2019-03-02T15:02:03.066Z,9.30
2019-03-02T15:05:10.199Z,9.20
2019-03-02T15:08:22.017Z,9.20
2019-03-02T15:11:36.495Z,9.20
2019-03-02T15:14:49.402Z,9.20
2019-03-02T15:18:02.207Z,9.30
2019-03-02T15:21:12.938Z,9.20
2019-03-02T15:24:39.601Z,9.30
2019-03-02T15:27:57.427Z,9.30
2019-03-02T15:31:19.724Z,9.40
2019-03-02T15:34:49.335Z,9.40
2019-03-02T15:38:04.747Z,9.50
2019-03-02T15:41:20.393Z,9.50
2019-03-02T15:44:46.548Z,9.60
2019-03-02T15:51:06.096Z,9.50
2019-03-02T15:54:34.743Z,9.50
2019-03-02T15:57:56.430Z,9.60
2019-03-02T16:01:23.149Z,9.70
2019-03-02T16:04:36.888Z,9.70
2019-03-02T16:07:46.183Z,9.70
2019-03-02T16:10:57.774Z,9.70
2019-03-02T16:14:18.967Z,9.70
2019-03-02T16:17:27.610Z,9.50
2019-03-02T16:20:39.031Z,9.60
2019-03-02T16:23:49.550Z,9.50
2019-03-02T16:27:01.053Z,9.50
2019-03-02T16:30:31.978Z,9.40
2019-03-02T16:36:59.994Z,9.50
2019-03-02T16:40:23.088Z,9.50
2019-03-02T16:43:47.405Z,9.40
2019-03-02T16:50:30.003Z,9.40
2019-03-02T16:53:57.193Z,9.40
2019-03-02T16:57:19.624Z,9.40
2019-03-02T17:00:33.723Z,9.40
2019-03-02T17:03:57.627Z,9.40
2019-03-02T17:07:23.536Z,9.30
2019-03-02T17:10:40.990Z,9.30
2019-03-02T17:16:57.611Z,9.20
2019-03-02T17:20:07.964Z,9.30
2019-03-02T17:23:23.983Z,9.30
2019-03-02T17:26:46.110Z,9.20
2019-03-02T17:30:05.560Z,9.20
2019-03-02T17:33:32.401Z,9.20
2019-03-02T17:36:52.340Z,9.20
2019-03-02T17:40:24.311Z,9.20
2019-03-02T17:47:02.648Z,9.10
2019-03-02T17:50:12.160Z,9.20
2019-03-02T17:53:27.523Z,9.10
2019-03-02T17:56:49.781Z,9.10
2019-03-02T18:00:16.073Z,9.10
2019-03-02T18:03:37.516Z,9.00
2019-03-02T18:07:04.483Z,9.00
2019-03-02T18:10:19.166Z,9.00
2019-03-02T18:17:11.436Z,9.00
2019-03-02T18:20:15.946Z,8.90
2019-03-02T18:23:18.955Z,9.00
2019-03-02T18:29:32.932Z,9.10
2019-03-02T18:35:20.515Z,9.10
2019-03-02T18:38:32.007Z,9.10
2019-03-02T18:41:33.893Z,9.10
2019-03-02T18:44:41.704Z,9.10
2019-03-02T18:47:43.777Z,9.10
2019-03-02T18:50:44.631Z,9.10
2019-03-02T18:53:46.414Z,9.20
2019-03-02T18:56:53.480Z,9.20
2019-03-02T19:00:00.318Z,9.20
2019-03-02T19:03:02.638Z,9.20
2019-03-02T19:06:04.641Z,9.20
2019-03-02T19:09:06.604Z,9.10
2019-03-02T19:12:08.549Z,9.20
2019-03-02T19:15:10.412Z,9.20
2019-03-02T19:18:12.267Z,9.20
2019-03-02T19:21:15.040Z,9.30
2019-03-02T19:24:26.033Z,9.30
2019-03-02T19:27:28.633Z,9.30
2019-03-02T19:30:30.091Z,9.40
2019-03-02T19:33:32.028Z,9.50
2019-03-02T19:36:38.834Z,9.60
2019-03-02T19:39:40.774Z,9.60
2019-03-02T19:42:42.696Z,9.60
2019-03-02T19:45:47.299Z,9.60
2019-03-02T19:48:49.192Z,9.60
2019-03-02T19:55:02.470Z,9.70
2019-03-02T19:58:03.303Z,9.70
2019-03-02T20:01:09.944Z,9.70
2019-03-02T20:04:15.620Z,9.70
2019-03-02T20:07:27.085Z,9.70
2019-03-02T20:10:27.751Z,9.70
2019-03-02T20:13:29.355Z,9.70
2019-03-02T20:16:29.266Z,9.70
2019-03-02T20:19:37.321Z,9.60
2019-03-02T20:25:51.674Z,9.60
2019-03-02T20:28:58.440Z,9.60
2019-03-02T20:35:14.286Z,9.50
2019-03-02T20:38:16.409Z,9.50
2019-03-02T20:41:23.743Z,9.50
2019-03-02T20:44:24.883Z,9.50
2019-03-02T20:47:26.276Z,9.50
2019-03-02T20:50:33.065Z,9.50
2019-03-02T20:53:34.652Z,9.50
2019-03-02T20:56:36.523Z,9.50
2019-03-02T20:59:37.545Z,9.50
2019-03-02T21:05:23.408Z,9.60
2019-03-02T21:08:24.208Z,9.50
2019-03-02T21:14:09.900Z,9.60
2019-03-02T21:17:11.240Z,9.50
2019-03-02T21:20:12.437Z,9.50
2019-03-02T21:23:13.025Z,9.50
2019-03-02T21:26:13.233Z,9.50
2019-03-02T21:29:14.707Z,9.40
2019-03-02T21:34:59.740Z,9.50
2019-03-02T21:38:02.334Z,9.50
2019-03-02T21:41:03.675Z,9.50
2019-03-02T21:44:05.091Z,9.50
2019-03-02T21:49:53.400Z,9.60
2019-03-02T21:53:00.574Z,9.60
2019-03-02T21:56:03.198Z,9.60
2019-03-02T21:59:04.775Z,9.60
2019-03-02T22:02:05.718Z,9.60
2019-03-02T22:08:05.974Z,9.70
2019-03-02T22:11:07.719Z,9.70
2019-03-02T22:14:07.675Z,9.70
2019-03-02T22:17:17.910Z,9.70
2019-03-02T22:20:19.681Z,9.70
2019-03-02T22:23:31.884Z,9.80
2019-03-02T22:26:32.513Z,9.80
2019-03-02T22:29:34.343Z,9.80
2019-03-02T22:35:28.540Z,9.90
2019-03-02T22:38:30.357Z,9.90
2019-03-02T22:41:30.354Z,9.90
2019-03-02T22:44:31.827Z,9.90
2019-03-02T22:50:46.955Z,9.90
2019-03-02T22:53:53.325Z,10.00
2019-03-02T22:56:53.123Z,9.90
2019-03-02T23:03:05.495Z,10.10
2019-03-02T23:09:21.184Z,10.10
2019-03-02T23:12:30.307Z,10.00
2019-03-02T23:15:30.908Z,10.20
2019-03-02T23:18:30.791Z,10.10
2019-03-02T23:21:41.676Z,10.20
2019-03-02T23:24:42.486Z,10.20
2019-03-02T23:31:04.915Z,10.30
2019-03-02T23:34:11.898Z,10.30
2019-03-02T23:43:39.435Z,10.30
2019-03-02T23:46:39.298Z,10.30
2019-03-02T23:49:41.122Z,10.30
2019-03-02T23:52:43.081Z,10.30
2019-03-02T23:55:44.823Z,10.30
2019-03-02T23:58:46.686Z,10.30
